sensor_id;sensor_type;location;lat;lon;timestamp;P1;durP1;ratioP1;P2;durP2;ratioP2
55539;SDS011;41384;51.418;7.286;2023-06-19T00:01:41;4.43;;;3.72;;
55539;SDS011;41384;51.418;7.286;2023-06-19T00:04:06;4.53;;;3.72;;
55539;SDS011;41384;51.418;7.286;2023-06-19T00:06:31;5.43;;;3.58;;
55539;SDS011;41384;51.418;7.286;2023-06-19T00:08:57;4.10;;;2.92;;
55539;SDS011;41384;51.418;7.286;2023-06-19T00:11:22;4.63;;;3.70;;
55539;SDS011;41384;51.418;7.286;2023-06-19T00:13:47;4.28;;;3.45;;
55539;SDS011;41384;51.418;7.286;2023-06-19T00:16:12;4.95;;;3.60;;
55539;SDS011;41384;51.418;7.286;2023-06-19T00:18:38;3.65;;;3.25;;
55539;SDS011;41384;51.418;7.286;2023-06-19T00:21:06;4.78;;;3.40;;
55539;SDS011;41384;51.418;7.286;2023-06-19T00:23:32;3.95;;;3.15;;
55539;SDS011;41384;51.418;7.286;2023-06-19T00:25:58;5.22;;;3.88;;
55539;SDS011;41384;51.418;7.286;2023-06-19T00:28:26;4.07;;;3.50;;
55539;SDS011;41384;51.418;7.286;2023-06-19T00:30:51;4.53;;;3.65;;
55539;SDS011;41384;51.418;7.286;2023-06-19T00:33:16;4.30;;;3.33;;
55539;SDS011;41384;51.418;7.286;2023-06-19T00:35:42;5.63;;;3.60;;
55539;SDS011;41384;51.418;7.286;2023-06-19T00:38:07;5.75;;;3.78;;
55539;SDS011;41384;51.418;7.286;2023-06-19T00:40:33;4.63;;;3.50;;
55539;SDS011;41384;51.418;7.286;2023-06-19T00:42:58;4.50;;;3.60;;
55539;SDS011;41384;51.418;7.286;2023-06-19T00:45:24;5.55;;;3.30;;
55539;SDS011;41384;51.418;7.286;2023-06-19T00:47:51;7.28;;;3.53;;
55539;SDS011;41384;51.418;7.286;2023-06-19T00:50:17;4.22;;;3.58;;
55539;SDS011;41384;51.418;7.286;2023-06-19T00:52:43;3.67;;;3.10;;
55539;SDS011;41384;51.418;7.286;2023-06-19T00:55:08;4.25;;;3.35;;
55539;SDS011;41384;51.418;7.286;2023-06-19T00:57:34;5.28;;;3.55;;
55539;SDS011;41384;51.418;7.286;2023-06-19T01:00:01;4.20;;;3.20;;
55539;SDS011;41384;51.418;7.286;2023-06-19T01:02:29;4.30;;;3.65;;
55539;SDS011;41384;51.418;7.286;2023-06-19T01:04:55;4.53;;;3.60;;
55539;SDS011;41384;51.418;7.286;2023-06-19T01:07:22;4.93;;;3.67;;
55539;SDS011;41384;51.418;7.286;2023-06-19T01:09:59;4.15;;;3.63;;
55539;SDS011;41384;51.418;7.286;2023-06-19T01:12:33;5.25;;;3.65;;
55539;SDS011;41384;51.418;7.286;2023-06-19T01:15:03;3.83;;;3.25;;
55539;SDS011;41384;51.418;7.286;2023-06-19T01:17:30;5.97;;;3.42;;
55539;SDS011;41384;51.418;7.286;2023-06-19T01:19:56;4.70;;;3.55;;
55539;SDS011;41384;51.418;7.286;2023-06-19T01:24:51;3.95;;;3.20;;
55539;SDS011;41384;51.418;7.286;2023-06-19T01:27:17;4.85;;;3.40;;
55539;SDS011;41384;51.418;7.286;2023-06-19T01:29:42;4.25;;;3.17;;
55539;SDS011;41384;51.418;7.286;2023-06-19T01:32:09;3.85;;;2.88;;
55539;SDS011;41384;51.418;7.286;2023-06-19T01:34:35;3.58;;;2.78;;
55539;SDS011;41384;51.418;7.286;2023-06-19T01:37:02;4.45;;;3.00;;
55539;SDS011;41384;51.418;7.286;2023-06-19T01:39:30;3.60;;;2.97;;
55539;SDS011;41384;51.418;7.286;2023-06-19T01:41:57;4.57;;;3.20;;
55539;SDS011;41384;51.418;7.286;2023-06-19T01:44:24;3.80;;;3.20;;
55539;SDS011;41384;51.418;7.286;2023-06-19T01:46:49;5.15;;;3.45;;
55539;SDS011;41384;51.418;7.286;2023-06-19T01:49:16;4.30;;;3.53;;
55539;SDS011;41384;51.418;7.286;2023-06-19T01:51:41;4.60;;;3.42;;
55539;SDS011;41384;51.418;7.286;2023-06-19T01:54:06;3.83;;;3.35;;
55539;SDS011;41384;51.418;7.286;2023-06-19T01:56:32;4.20;;;3.33;;
55539;SDS011;41384;51.418;7.286;2023-06-19T01:58:58;4.28;;;3.35;;
55539;SDS011;41384;51.418;7.286;2023-06-19T02:01:23;3.97;;;3.40;;
55539;SDS011;41384;51.418;7.286;2023-06-19T02:03:48;5.13;;;3.50;;
55539;SDS011;41384;51.418;7.286;2023-06-19T02:06:14;4.75;;;3.30;;
55539;SDS011;41384;51.418;7.286;2023-06-19T02:08:39;5.25;;;3.25;;
55539;SDS011;41384;51.418;7.286;2023-06-19T02:11:04;4.90;;;3.45;;
55539;SDS011;41384;51.418;7.286;2023-06-19T02:13:29;4.20;;;3.63;;
55539;SDS011;41384;51.418;7.286;2023-06-19T02:15:55;4.50;;;3.45;;
55539;SDS011;41384;51.418;7.286;2023-06-19T02:18:20;7.28;;;3.90;;
55539;SDS011;41384;51.418;7.286;2023-06-19T02:20:47;4.72;;;3.75;;
55539;SDS011;41384;51.418;7.286;2023-06-19T02:23:12;6.18;;;3.78;;
55539;SDS011;41384;51.418;7.286;2023-06-19T02:25:37;4.10;;;3.70;;
55539;SDS011;41384;51.418;7.286;2023-06-19T02:28:02;12.63;;;4.32;;
55539;SDS011;41384;51.418;7.286;2023-06-19T02:30:28;4.45;;;3.80;;
55539;SDS011;41384;51.418;7.286;2023-06-19T02:32:54;7.10;;;3.97;;
55539;SDS011;41384;51.418;7.286;2023-06-19T02:35:19;5.10;;;4.22;;
55539;SDS011;41384;51.418;7.286;2023-06-19T02:37:44;7.80;;;3.83;;
55539;SDS011;41384;51.418;7.286;2023-06-19T02:40:11;5.38;;;4.20;;
55539;SDS011;41384;51.418;7.286;2023-06-19T02:42:36;4.72;;;3.78;;
55539;SDS011;41384;51.418;7.286;2023-06-19T02:45:02;5.40;;;3.97;;
55539;SDS011;41384;51.418;7.286;2023-06-19T02:47:30;6.63;;;4.13;;
55539;SDS011;41384;51.418;7.286;2023-06-19T02:49:59;5.03;;;3.90;;
55539;SDS011;41384;51.418;7.286;2023-06-19T02:52:26;4.55;;;4.15;;
55539;SDS011;41384;51.418;7.286;2023-06-19T02:54:52;5.55;;;4.00;;
55539;SDS011;41384;51.418;7.286;2023-06-19T02:57:17;5.20;;;3.95;;
55539;SDS011;41384;51.418;7.286;2023-06-19T02:59:42;5.72;;;4.10;;
55539;SDS011;41384;51.418;7.286;2023-06-19T03:02:08;6.15;;;3.85;;
55539;SDS011;41384;51.418;7.286;2023-06-19T03:04:33;5.13;;;4.00;;
55539;SDS011;41384;51.418;7.286;2023-06-19T03:06:58;5.85;;;4.40;;
55539;SDS011;41384;51.418;7.286;2023-06-19T03:09:31;5.32;;;4.40;;
55539;SDS011;41384;51.418;7.286;2023-06-19T03:11:56;7.85;;;4.80;;
55539;SDS011;41384;51.418;7.286;2023-06-19T03:14:21;5.57;;;4.10;;
55539;SDS011;41384;51.418;7.286;2023-06-19T03:16:47;10.55;;;3.72;;
55539;SDS011;41384;51.418;7.286;2023-06-19T03:19:12;6.85;;;3.50;;
55539;SDS011;41384;51.418;7.286;2023-06-19T03:21:37;7.65;;;4.35;;
55539;SDS011;41384;51.418;7.286;2023-06-19T03:24:03;6.20;;;4.03;;
55539;SDS011;41384;51.418;7.286;2023-06-19T03:26:28;4.50;;;4.00;;
55539;SDS011;41384;51.418;7.286;2023-06-19T03:28:54;4.75;;;3.47;;
55539;SDS011;41384;51.418;7.286;2023-06-19T03:31:20;5.13;;;3.85;;
55539;SDS011;41384;51.418;7.286;2023-06-19T03:33:45;5.43;;;3.53;;
55539;SDS011;41384;51.418;7.286;2023-06-19T03:36:10;3.95;;;3.30;;
55539;SDS011;41384;51.418;7.286;2023-06-19T03:38:35;3.97;;;3.30;;
55539;SDS011;41384;51.418;7.286;2023-06-19T03:41:01;7.68;;;3.13;;
55539;SDS011;41384;51.418;7.286;2023-06-19T03:43:26;4.13;;;3.17;;
55539;SDS011;41384;51.418;7.286;2023-06-19T03:45:51;5.57;;;3.47;;
55539;SDS011;41384;51.418;7.286;2023-06-19T03:48:17;3.90;;;3.10;;
55539;SDS011;41384;51.418;7.286;2023-06-19T03:50:42;3.97;;;2.80;;
55539;SDS011;41384;51.418;7.286;2023-06-19T03:53:08;4.60;;;3.00;;
55539;SDS011;41384;51.418;7.286;2023-06-19T03:55:33;4.47;;;3.10;;
55539;SDS011;41384;51.418;7.286;2023-06-19T03:57:59;3.92;;;2.80;;
55539;SDS011;41384;51.418;7.286;2023-06-19T04:00:24;3.60;;;3.00;;
55539;SDS011;41384;51.418;7.286;2023-06-19T04:02:49;4.28;;;2.70;;
55539;SDS011;41384;51.418;7.286;2023-06-19T04:05:15;5.03;;;3.10;;
55539;SDS011;41384;51.418;7.286;2023-06-19T04:07:40;4.85;;;3.58;;
55539;SDS011;41384;51.418;7.286;2023-06-19T04:10:06;3.92;;;2.83;;
55539;SDS011;41384;51.418;7.286;2023-06-19T04:12:32;3.47;;;2.88;;
55539;SDS011;41384;51.418;7.286;2023-06-19T04:14:57;4.60;;;2.80;;
55539;SDS011;41384;51.418;7.286;2023-06-19T04:17:23;7.00;;;2.75;;
55539;SDS011;41384;51.418;7.286;2023-06-19T04:19:48;5.13;;;3.03;;
55539;SDS011;41384;51.418;7.286;2023-06-19T04:22:13;4.22;;;2.75;;
55539;SDS011;41384;51.418;7.286;2023-06-19T04:24:38;4.30;;;2.67;;
55539;SDS011;41384;51.418;7.286;2023-06-19T04:27:04;3.70;;;2.60;;
55539;SDS011;41384;51.418;7.286;2023-06-19T04:29:29;5.00;;;3.25;;
55539;SDS011;41384;51.418;7.286;2023-06-19T04:31:59;5.15;;;3.20;;
55539;SDS011;41384;51.418;7.286;2023-06-19T04:34:28;4.78;;;3.05;;
55539;SDS011;41384;51.418;7.286;2023-06-19T04:36:53;3.00;;;2.60;;
55539;SDS011;41384;51.418;7.286;2023-06-19T04:39:18;4.15;;;2.90;;
55539;SDS011;41384;51.418;7.286;2023-06-19T04:41:44;4.15;;;2.53;;
55539;SDS011;41384;51.418;7.286;2023-06-19T04:44:12;4.80;;;2.80;;
55539;SDS011;41384;51.418;7.286;2023-06-19T04:46:37;4.43;;;3.03;;
55539;SDS011;41384;51.418;7.286;2023-06-19T04:49:04;4.30;;;2.78;;
55539;SDS011;41384;51.418;7.286;2023-06-19T04:51:33;4.15;;;2.97;;
55539;SDS011;41384;51.418;7.286;2023-06-19T04:53:58;4.40;;;3.10;;
55539;SDS011;41384;51.418;7.286;2023-06-19T04:56:24;2.80;;;2.38;;
55539;SDS011;41384;51.418;7.286;2023-06-19T04:58:49;4.45;;;2.72;;
55539;SDS011;41384;51.418;7.286;2023-06-19T05:01:16;5.10;;;3.10;;
55539;SDS011;41384;51.418;7.286;2023-06-19T05:03:43;3.55;;;3.00;;
55539;SDS011;41384;51.418;7.286;2023-06-19T05:06:10;5.25;;;2.97;;
55539;SDS011;41384;51.418;7.286;2023-06-19T05:08:36;3.22;;;2.47;;
55539;SDS011;41384;51.418;7.286;2023-06-19T05:11:01;5.20;;;3.00;;
55539;SDS011;41384;51.418;7.286;2023-06-19T05:13:26;4.15;;;2.67;;
55539;SDS011;41384;51.418;7.286;2023-06-19T05:15:52;3.40;;;2.63;;
55539;SDS011;41384;51.418;7.286;2023-06-19T05:18:17;3.95;;;2.60;;
55539;SDS011;41384;51.418;7.286;2023-06-19T05:20:43;3.63;;;2.70;;
55539;SDS011;41384;51.418;7.286;2023-06-19T05:23:09;2.55;;;2.20;;
55539;SDS011;41384;51.418;7.286;2023-06-19T05:25:34;4.38;;;2.50;;
55539;SDS011;41384;51.418;7.286;2023-06-19T05:28:00;4.32;;;2.40;;
55539;SDS011;41384;51.418;7.286;2023-06-19T05:30:25;4.68;;;2.03;;
55539;SDS011;41384;51.418;7.286;2023-06-19T05:32:50;2.83;;;1.80;;
55539;SDS011;41384;51.418;7.286;2023-06-19T05:35:16;3.00;;;1.92;;
55539;SDS011;41384;51.418;7.286;2023-06-19T05:37:41;5.30;;;1.90;;
55539;SDS011;41384;51.418;7.286;2023-06-19T05:40:08;3.72;;;2.00;;
55539;SDS011;41384;51.418;7.286;2023-06-19T05:42:37;4.13;;;2.08;;
55539;SDS011;41384;51.418;7.286;2023-06-19T05:45:03;9.05;;;2.35;;
55539;SDS011;41384;51.418;7.286;2023-06-19T05:47:29;2.40;;;2.00;;
55539;SDS011;41384;51.418;7.286;2023-06-19T05:49:55;1.92;;;1.73;;
55539;SDS011;41384;51.418;7.286;2023-06-19T05:52:21;3.17;;;2.03;;
55539;SDS011;41384;51.418;7.286;2023-06-19T05:54:47;3.70;;;1.90;;
55539;SDS011;41384;51.418;7.286;2023-06-19T05:57:12;3.53;;;2.05;;
55539;SDS011;41384;51.418;7.286;2023-06-19T05:59:37;3.22;;;2.00;;
55539;SDS011;41384;51.418;7.286;2023-06-19T06:02:03;3.03;;;2.08;;
55539;SDS011;41384;51.418;7.286;2023-06-19T06:04:29;3.03;;;1.85;;
55539;SDS011;41384;51.418;7.286;2023-06-19T06:06:55;4.10;;;2.10;;
55539;SDS011;41384;51.418;7.286;2023-06-19T06:09:21;2.83;;;1.98;;
55539;SDS011;41384;51.418;7.286;2023-06-19T06:11:46;4.82;;;1.88;;
55539;SDS011;41384;51.418;7.286;2023-06-19T06:14:12;3.70;;;1.90;;
55539;SDS011;41384;51.418;7.286;2023-06-19T06:16:37;2.22;;;1.75;;
55539;SDS011;41384;51.418;7.286;2023-06-19T06:19:02;3.97;;;1.92;;
55539;SDS011;41384;51.418;7.286;2023-06-19T06:21:27;5.70;;;2.25;;
55539;SDS011;41384;51.418;7.286;2023-06-19T06:23:53;4.35;;;2.22;;
55539;SDS011;41384;51.418;7.286;2023-06-19T06:26:19;2.25;;;2.00;;
55539;SDS011;41384;51.418;7.286;2023-06-19T06:28:44;3.50;;;1.92;;
55539;SDS011;41384;51.418;7.286;2023-06-19T06:31:10;2.58;;;2.25;;
55539;SDS011;41384;51.418;7.286;2023-06-19T06:33:35;3.28;;;1.80;;
55539;SDS011;41384;51.418;7.286;2023-06-19T06:36:01;3.10;;;1.92;;
55539;SDS011;41384;51.418;7.286;2023-06-19T06:38:26;7.55;;;2.50;;
55539;SDS011;41384;51.418;7.286;2023-06-19T06:40:51;6.32;;;2.28;;
55539;SDS011;41384;51.418;7.286;2023-06-19T06:43:17;5.00;;;2.10;;
55539;SDS011;41384;51.418;7.286;2023-06-19T06:45:42;3.42;;;2.20;;
55539;SDS011;41384;51.418;7.286;2023-06-19T06:48:07;2.95;;;1.90;;
55539;SDS011;41384;51.418;7.286;2023-06-19T06:50:33;3.65;;;2.25;;
55539;SDS011;41384;51.418;7.286;2023-06-19T06:52:59;3.75;;;2.03;;
55539;SDS011;41384;51.418;7.286;2023-06-19T06:55:24;4.25;;;1.92;;
55539;SDS011;41384;51.418;7.286;2023-06-19T06:57:50;4.03;;;2.10;;
55539;SDS011;41384;51.418;7.286;2023-06-19T07:00:15;2.90;;;2.13;;
55539;SDS011;41384;51.418;7.286;2023-06-19T07:02:40;2.60;;;1.80;;
55539;SDS011;41384;51.418;7.286;2023-06-19T07:05:06;2.30;;;2.10;;
55539;SDS011;41384;51.418;7.286;2023-06-19T07:07:32;4.80;;;2.00;;
55539;SDS011;41384;51.418;7.286;2023-06-19T07:09:57;4.65;;;2.10;;
55539;SDS011;41384;51.418;7.286;2023-06-19T07:12:23;2.58;;;2.13;;
55539;SDS011;41384;51.418;7.286;2023-06-19T07:14:48;2.72;;;2.00;;
55539;SDS011;41384;51.418;7.286;2023-06-19T07:17:13;5.03;;;2.30;;
55539;SDS011;41384;51.418;7.286;2023-06-19T07:19:38;2.80;;;1.88;;
55539;SDS011;41384;51.418;7.286;2023-06-19T07:22:04;4.05;;;2.10;;
55539;SDS011;41384;51.418;7.286;2023-06-19T07:24:29;3.95;;;2.15;;
55539;SDS011;41384;51.418;7.286;2023-06-19T07:26:54;3.10;;;1.88;;
55539;SDS011;41384;51.418;7.286;2023-06-19T07:29:21;8.48;;;2.08;;
55539;SDS011;41384;51.418;7.286;2023-06-19T07:31:46;2.67;;;1.90;;
55539;SDS011;41384;51.418;7.286;2023-06-19T07:34:12;2.85;;;1.80;;
55539;SDS011;41384;51.418;7.286;2023-06-19T07:36:38;2.78;;;1.75;;
55539;SDS011;41384;51.418;7.286;2023-06-19T07:39:03;3.92;;;1.73;;
55539;SDS011;41384;51.418;7.286;2023-06-19T07:41:28;3.80;;;1.90;;
55539;SDS011;41384;51.418;7.286;2023-06-19T07:43:54;4.53;;;2.10;;
55539;SDS011;41384;51.418;7.286;2023-06-19T07:46:19;2.47;;;1.80;;
55539;SDS011;41384;51.418;7.286;2023-06-19T07:48:44;2.47;;;1.98;;
55539;SDS011;41384;51.418;7.286;2023-06-19T07:51:09;3.33;;;1.77;;
55539;SDS011;41384;51.418;7.286;2023-06-19T07:53:35;3.55;;;1.80;;
55539;SDS011;41384;51.418;7.286;2023-06-19T07:56:00;5.57;;;1.80;;
55539;SDS011;41384;51.418;7.286;2023-06-19T07:58:25;3.80;;;1.88;;
55539;SDS011;41384;51.418;7.286;2023-06-19T08:00:51;3.53;;;1.63;;
55539;SDS011;41384;51.418;7.286;2023-06-19T08:03:16;4.55;;;2.03;;
55539;SDS011;41384;51.418;7.286;2023-06-19T08:05:41;3.95;;;2.28;;
55539;SDS011;41384;51.418;7.286;2023-06-19T08:08:06;6.55;;;2.40;;
55539;SDS011;41384;51.418;7.286;2023-06-19T08:10:32;4.50;;;2.17;;
55539;SDS011;41384;51.418;7.286;2023-06-19T08:12:57;3.05;;;1.90;;
55539;SDS011;41384;51.418;7.286;2023-06-19T08:15:22;2.13;;;1.90;;
55539;SDS011;41384;51.418;7.286;2023-06-19T08:17:48;3.03;;;2.00;;
55539;SDS011;41384;51.418;7.286;2023-06-19T08:20:13;2.90;;;1.70;;
55539;SDS011;41384;51.418;7.286;2023-06-19T08:22:38;2.95;;;1.83;;
55539;SDS011;41384;51.418;7.286;2023-06-19T08:25:04;3.28;;;2.33;;
55539;SDS011;41384;51.418;7.286;2023-06-19T08:27:30;4.43;;;2.00;;
55539;SDS011;41384;51.418;7.286;2023-06-19T08:29:55;4.78;;;2.25;;
55539;SDS011;41384;51.418;7.286;2023-06-19T08:32:20;5.50;;;2.38;;
55539;SDS011;41384;51.418;7.286;2023-06-19T08:34:46;3.45;;;1.90;;
55539;SDS011;41384;51.418;7.286;2023-06-19T08:37:11;4.72;;;2.00;;
55539;SDS011;41384;51.418;7.286;2023-06-19T08:39:36;2.95;;;2.28;;
55539;SDS011;41384;51.418;7.286;2023-06-19T08:42:05;3.95;;;2.20;;
55539;SDS011;41384;51.418;7.286;2023-06-19T08:44:32;3.55;;;1.70;;
55539;SDS011;41384;51.418;7.286;2023-06-19T08:46:58;3.85;;;2.20;;
55539;SDS011;41384;51.418;7.286;2023-06-19T08:49:23;2.70;;;2.10;;
55539;SDS011;41384;51.418;7.286;2023-06-19T08:51:48;8.85;;;2.38;;
55539;SDS011;41384;51.418;7.286;2023-06-19T08:54:14;4.25;;;2.15;;
55539;SDS011;41384;51.418;7.286;2023-06-19T08:56:39;4.25;;;2.35;;
55539;SDS011;41384;51.418;7.286;2023-06-19T08:59:14;5.57;;;2.35;;
55539;SDS011;41384;51.418;7.286;2023-06-19T09:01:48;4.47;;;2.38;;
55539;SDS011;41384;51.418;7.286;2023-06-19T09:04:21;3.78;;;1.80;;
55539;SDS011;41384;51.418;7.286;2023-06-19T09:06:52;3.72;;;1.90;;
55539;SDS011;41384;51.418;7.286;2023-06-19T09:09:19;5.20;;;2.22;;
55539;SDS011;41384;51.418;7.286;2023-06-19T09:14:31;5.23;;;2.20;;
55539;SDS011;41384;51.418;7.286;2023-06-19T09:16:56;2.80;;;2.08;;
55539;SDS011;41384;51.418;7.286;2023-06-19T09:19:21;2.58;;;2.13;;
55539;SDS011;41384;51.418;7.286;2023-06-19T09:21:47;2.65;;;2.00;;
55539;SDS011;41384;51.418;7.286;2023-06-19T09:24:12;3.00;;;1.83;;
55539;SDS011;41384;51.418;7.286;2023-06-19T09:26:37;8.25;;;2.20;;
55539;SDS011;41384;51.418;7.286;2023-06-19T09:29:12;4.30;;;2.28;;
55539;SDS011;41384;51.418;7.286;2023-06-19T09:31:38;3.63;;;2.30;;
55539;SDS011;41384;51.418;7.286;2023-06-19T09:34:06;8.10;;;2.55;;
55539;SDS011;41384;51.418;7.286;2023-06-19T09:36:32;4.53;;;2.17;;
55539;SDS011;41384;51.418;7.286;2023-06-19T09:38:59;5.43;;;2.17;;
55539;SDS011;41384;51.418;7.286;2023-06-19T09:41:25;5.05;;;2.35;;
55539;SDS011;41384;51.418;7.286;2023-06-19T09:43:50;3.55;;;2.20;;
55539;SDS011;41384;51.418;7.286;2023-06-19T09:46:22;7.57;;;2.60;;
55539;SDS011;41384;51.418;7.286;2023-06-19T09:48:51;5.72;;;2.22;;
55539;SDS011;41384;51.418;7.286;2023-06-19T09:51:20;2.83;;;1.95;;
55539;SDS011;41384;51.418;7.286;2023-06-19T09:53:48;3.90;;;2.30;;
55539;SDS011;41384;51.418;7.286;2023-06-19T09:56:15;5.40;;;2.50;;
55539;SDS011;41384;51.418;7.286;2023-06-19T09:58:46;7.50;;;2.30;;
55539;SDS011;41384;51.418;7.286;2023-06-19T10:01:14;4.20;;;2.10;;
55539;SDS011;41384;51.418;7.286;2023-06-19T10:03:43;4.10;;;2.17;;
55539;SDS011;41384;51.418;7.286;2023-06-19T10:06:12;6.13;;;2.40;;
55539;SDS011;41384;51.418;7.286;2023-06-19T10:08:40;3.38;;;2.50;;
55539;SDS011;41384;51.418;7.286;2023-06-19T10:11:07;3.22;;;2.30;;
55539;SDS011;41384;51.418;7.286;2023-06-19T10:13:34;3.35;;;2.40;;
55539;SDS011;41384;51.418;7.286;2023-06-19T10:16:01;5.82;;;2.58;;
55539;SDS011;41384;51.418;7.286;2023-06-19T10:18:27;4.97;;;2.28;;
55539;SDS011;41384;51.418;7.286;2023-06-19T10:20:53;3.47;;;2.22;;
55539;SDS011;41384;51.418;7.286;2023-06-19T10:23:20;4.50;;;2.50;;
55539;SDS011;41384;51.418;7.286;2023-06-19T10:25:48;5.72;;;2.85;;
55539;SDS011;41384;51.418;7.286;2023-06-19T10:30:54;6.10;;;2.35;;
55539;SDS011;41384;51.418;7.286;2023-06-19T10:33:21;4.57;;;2.40;;
55539;SDS011;41384;51.418;7.286;2023-06-19T10:35:50;6.70;;;2.60;;
55539;SDS011;41384;51.418;7.286;2023-06-19T10:38:15;4.60;;;2.15;;
55539;SDS011;41384;51.418;7.286;2023-06-19T10:40:41;4.85;;;2.80;;
55539;SDS011;41384;51.418;7.286;2023-06-19T10:43:08;4.47;;;2.63;;
55539;SDS011;41384;51.418;7.286;2023-06-19T10:45:33;3.75;;;2.30;;
55539;SDS011;41384;51.418;7.286;2023-06-19T10:48:00;11.88;;;2.80;;
55539;SDS011;41384;51.418;7.286;2023-06-19T10:50:30;3.85;;;2.55;;
55539;SDS011;41384;51.418;7.286;2023-06-19T10:53:00;5.07;;;2.72;;
55539;SDS011;41384;51.418;7.286;2023-06-19T10:55:25;2.97;;;2.50;;
55539;SDS011;41384;51.418;7.286;2023-06-19T10:57:50;3.03;;;2.40;;
55539;SDS011;41384;51.418;7.286;2023-06-19T11:00:26;3.80;;;2.63;;
55539;SDS011;41384;51.418;7.286;2023-06-19T11:02:53;4.55;;;2.35;;
55539;SDS011;41384;51.418;7.286;2023-06-19T11:05:20;4.28;;;2.15;;
55539;SDS011;41384;51.418;7.286;2023-06-19T11:12:47;4.88;;;2.58;;
55539;SDS011;41384;51.418;7.286;2023-06-19T11:15:12;4.28;;;3.10;;
55539;SDS011;41384;51.418;7.286;2023-06-19T11:17:38;6.13;;;2.95;;
55539;SDS011;41384;51.418;7.286;2023-06-19T11:20:03;3.45;;;2.88;;
55539;SDS011;41384;51.418;7.286;2023-06-19T11:22:37;7.40;;;3.25;;
55539;SDS011;41384;51.418;7.286;2023-06-19T11:25:04;3.65;;;2.80;;
55539;SDS011;41384;51.418;7.286;2023-06-19T11:27:30;3.67;;;2.70;;
55539;SDS011;41384;51.418;7.286;2023-06-19T11:29:56;6.35;;;2.80;;
55539;SDS011;41384;51.418;7.286;2023-06-19T11:32:23;4.68;;;2.92;;
55539;SDS011;41384;51.418;7.286;2023-06-19T11:34:56;5.85;;;3.33;;
55539;SDS011;41384;51.418;7.286;2023-06-19T11:37:21;6.35;;;3.17;;
55539;SDS011;41384;51.418;7.286;2023-06-19T11:39:47;7.65;;;3.13;;
55539;SDS011;41384;51.418;7.286;2023-06-19T11:42:14;3.95;;;2.97;;
55539;SDS011;41384;51.418;7.286;2023-06-19T11:44:55;5.55;;;3.08;;
55539;SDS011;41384;51.418;7.286;2023-06-19T11:47:21;3.92;;;2.65;;
55539;SDS011;41384;51.418;7.286;2023-06-19T11:49:50;3.17;;;2.53;;
55539;SDS011;41384;51.418;7.286;2023-06-19T11:52:15;4.75;;;2.63;;
55539;SDS011;41384;51.418;7.286;2023-06-19T11:54:41;6.50;;;2.60;;
55539;SDS011;41384;51.418;7.286;2023-06-19T11:57:08;8.25;;;3.30;;
55539;SDS011;41384;51.418;7.286;2023-06-19T11:59:37;7.05;;;3.08;;
55539;SDS011;41384;51.418;7.286;2023-06-19T12:02:03;8.63;;;3.10;;
55539;SDS011;41384;51.418;7.286;2023-06-19T12:04:29;4.32;;;2.65;;
55539;SDS011;41384;51.418;7.286;2023-06-19T12:06:55;4.38;;;3.03;;
55539;SDS011;41384;51.418;7.286;2023-06-19T12:09:20;5.05;;;2.67;;
55539;SDS011;41384;51.418;7.286;2023-06-19T12:11:45;4.18;;;2.80;;
55539;SDS011;41384;51.418;7.286;2023-06-19T12:14:10;4.20;;;3.00;;
55539;SDS011;41384;51.418;7.286;2023-06-19T12:16:36;4.78;;;3.00;;
55539;SDS011;41384;51.418;7.286;2023-06-19T12:19:01;3.97;;;2.78;;
55539;SDS011;41384;51.418;7.286;2023-06-19T12:21:27;6.25;;;3.10;;
55539;SDS011;41384;51.418;7.286;2023-06-19T12:23:52;5.78;;;2.70;;
55539;SDS011;41384;51.418;7.286;2023-06-19T12:26:17;6.03;;;2.88;;
55539;SDS011;41384;51.418;7.286;2023-06-19T12:28:42;5.18;;;2.85;;
55539;SDS011;41384;51.418;7.286;2023-06-19T12:31:08;5.10;;;2.90;;
55539;SDS011;41384;51.418;7.286;2023-06-19T12:33:33;5.30;;;3.00;;
55539;SDS011;41384;51.418;7.286;2023-06-19T12:35:59;5.50;;;2.97;;
55539;SDS011;41384;51.418;7.286;2023-06-19T12:38:24;3.97;;;3.03;;
55539;SDS011;41384;51.418;7.286;2023-06-19T12:40:50;3.95;;;2.97;;
55539;SDS011;41384;51.418;7.286;2023-06-19T12:43:15;5.47;;;3.17;;
55539;SDS011;41384;51.418;7.286;2023-06-19T12:45:40;4.00;;;2.90;;
55539;SDS011;41384;51.418;7.286;2023-06-19T12:48:06;7.35;;;3.25;;
55539;SDS011;41384;51.418;7.286;2023-06-19T12:50:31;3.38;;;2.88;;
55539;SDS011;41384;51.418;7.286;2023-06-19T12:52:57;2.85;;;2.40;;
55539;SDS011;41384;51.418;7.286;2023-06-19T12:55:22;5.38;;;3.10;;
55539;SDS011;41384;51.418;7.286;2023-06-19T12:57:47;4.35;;;2.60;;
55539;SDS011;41384;51.418;7.286;2023-06-19T13:00:13;5.50;;;2.83;;
55539;SDS011;41384;51.418;7.286;2023-06-19T13:02:39;5.28;;;2.70;;
55539;SDS011;41384;51.418;7.286;2023-06-19T13:05:05;4.63;;;2.42;;
55539;SDS011;41384;51.418;7.286;2023-06-19T13:07:31;4.43;;;2.97;;
55539;SDS011;41384;51.418;7.286;2023-06-19T13:09:57;4.32;;;2.80;;
55539;SDS011;41384;51.418;7.286;2023-06-19T13:12:23;4.20;;;2.70;;
55539;SDS011;41384;51.418;7.286;2023-06-19T13:14:48;4.25;;;2.97;;
55539;SDS011;41384;51.418;7.286;2023-06-19T13:17:13;4.53;;;2.95;;
55539;SDS011;41384;51.418;7.286;2023-06-19T13:19:39;6.38;;;3.00;;
55539;SDS011;41384;51.418;7.286;2023-06-19T13:22:05;4.78;;;2.63;;
55539;SDS011;41384;51.418;7.286;2023-06-19T13:24:30;6.05;;;3.00;;
55539;SDS011;41384;51.418;7.286;2023-06-19T13:26:55;6.63;;;2.70;;
55539;SDS011;41384;51.418;7.286;2023-06-19T13:29:20;4.43;;;2.75;;
55539;SDS011;41384;51.418;7.286;2023-06-19T13:31:46;5.00;;;3.00;;
55539;SDS011;41384;51.418;7.286;2023-06-19T13:34:11;3.83;;;2.67;;
55539;SDS011;41384;51.418;7.286;2023-06-19T13:36:37;6.32;;;2.90;;
55539;SDS011;41384;51.418;7.286;2023-06-19T13:39:03;4.35;;;2.85;;
55539;SDS011;41384;51.418;7.286;2023-06-19T13:41:29;6.10;;;3.00;;
55539;SDS011;41384;51.418;7.286;2023-06-19T13:43:57;4.43;;;2.55;;
55539;SDS011;41384;51.418;7.286;2023-06-19T13:46:22;4.70;;;2.78;;
55539;SDS011;41384;51.418;7.286;2023-06-19T13:48:47;4.38;;;2.92;;
55539;SDS011;41384;51.418;7.286;2023-06-19T13:51:16;4.85;;;2.63;;
55539;SDS011;41384;51.418;7.286;2023-06-19T13:53:45;4.47;;;2.83;;
55539;SDS011;41384;51.418;7.286;2023-06-19T13:56:11;5.93;;;2.88;;
55539;SDS011;41384;51.418;7.286;2023-06-19T13:58:36;3.70;;;2.47;;
55539;SDS011;41384;51.418;7.286;2023-06-19T14:01:02;4.07;;;2.92;;
55539;SDS011;41384;51.418;7.286;2023-06-19T14:03:27;5.20;;;2.88;;
55539;SDS011;41384;51.418;7.286;2023-06-19T14:05:52;4.47;;;2.97;;
55539;SDS011;41384;51.418;7.286;2023-06-19T14:08:17;3.50;;;2.85;;
55539;SDS011;41384;51.418;7.286;2023-06-19T14:10:43;7.40;;;2.78;;
55539;SDS011;41384;51.418;7.286;2023-06-19T14:13:08;3.95;;;2.40;;
55539;SDS011;41384;51.418;7.286;2023-06-19T14:15:34;4.22;;;2.63;;
55539;SDS011;41384;51.418;7.286;2023-06-19T14:17:59;4.32;;;2.55;;
55539;SDS011;41384;51.418;7.286;2023-06-19T14:20:24;5.90;;;2.70;;
55539;SDS011;41384;51.418;7.286;2023-06-19T14:22:50;4.95;;;2.55;;
55539;SDS011;41384;51.418;7.286;2023-06-19T14:25:15;3.25;;;2.50;;
55539;SDS011;41384;51.418;7.286;2023-06-19T14:27:40;8.07;;;2.80;;
55539;SDS011;41384;51.418;7.286;2023-06-19T14:30:06;3.50;;;2.60;;
55539;SDS011;41384;51.418;7.286;2023-06-19T14:32:33;4.05;;;2.80;;
55539;SDS011;41384;51.418;7.286;2023-06-19T14:34:58;4.35;;;2.72;;
55539;SDS011;41384;51.418;7.286;2023-06-19T14:37:23;4.88;;;2.65;;
55539;SDS011;41384;51.418;7.286;2023-06-19T14:39:49;6.05;;;3.00;;
55539;SDS011;41384;51.418;7.286;2023-06-19T14:42:14;3.92;;;2.75;;
55539;SDS011;41384;51.418;7.286;2023-06-19T14:44:39;4.30;;;2.58;;
55539;SDS011;41384;51.418;7.286;2023-06-19T14:47:05;6.47;;;2.40;;
55539;SDS011;41384;51.418;7.286;2023-06-19T14:49:30;3.55;;;2.47;;
55539;SDS011;41384;51.418;7.286;2023-06-19T14:51:55;4.05;;;2.28;;
55539;SDS011;41384;51.418;7.286;2023-06-19T14:54:22;3.45;;;2.55;;